sensor_id;sensor_type;location;lat;lon;timestamp;temperature;humidity
51902;DHT22;37929;53.218;6.548;2023-05-31T00:00:03;12.00;99.90
51902;DHT22;37929;53.218;6.548;2023-05-31T00:02:29;12.00;99.90
51902;DHT22;37929;53.218;6.548;2023-05-31T00:04:55;12.20;99.90
51902;DHT22;37929;53.218;6.548;2023-05-31T00:07:21;12.00;99.90
51902;DHT22;37929;53.218;6.548;2023-05-31T00:09:47;12.00;99.90
51902;DHT22;37929;53.218;6.548;2023-05-31T00:12:13;12.00;99.90
51902;DHT22;37929;53.218;6.548;2023-05-31T00:14:38;12.10;99.90
51902;DHT22;37929;53.218;6.548;2023-05-31T00:17:04;12.00;99.90
51902;DHT22;37929;53.218;6.548;2023-05-31T00:19:30;12.00;99.90
51902;DHT22;37929;53.218;6.548;2023-05-31T00:21:56;12.00;99.90
51902;DHT22;37929;53.218;6.548;2023-05-31T00:24:22;11.90;99.90
51902;DHT22;37929;53.218;6.548;2023-05-31T00:26:48;11.90;99.90
51902;DHT22;37929;53.218;6.548;2023-05-31T00:29:14;12.00;99.90
51902;DHT22;37929;53.218;6.548;2023-05-31T00:31:43;11.90;99.90
51902;DHT22;37929;53.218;6.548;2023-05-31T00:34:09;11.90;99.90
51902;DHT22;37929;53.218;6.548;2023-05-31T00:36:36;11.80;99.90
51902;DHT22;37929;53.218;6.548;2023-05-31T00:39:11;11.60;99.90
51902;DHT22;37929;53.218;6.548;2023-05-31T00:41:36;11.70;99.90
51902;DHT22;37929;53.218;6.548;2023-05-31T00:44:05;11.60;99.90
51902;DHT22;37929;53.218;6.548;2023-05-31T00:46:37;11.50;99.90
51902;DHT22;37929;53.218;6.548;2023-05-31T00:49:04;11.50;99.90
51902;DHT22;37929;53.218;6.548;2023-05-31T00:51:31;11.10;99.90
51902;DHT22;37929;53.218;6.548;2023-05-31T00:53:59;11.50;99.90
51902;DHT22;37929;53.218;6.548;2023-05-31T00:56:33;11.60;99.90
51902;DHT22;37929;53.218;6.548;2023-05-31T00:59:01;11.50;99.90
51902;DHT22;37929;53.218;6.548;2023-05-31T01:01:28;11.60;99.90
51902;DHT22;37929;53.218;6.548;2023-05-31T01:04:01;11.60;99.90
51902;DHT22;37929;53.218;6.548;2023-05-31T01:06:28;12.30;99.90
51902;DHT22;37929;53.218;6.548;2023-05-31T01:09:02;11.60;99.90
51902;DHT22;37929;53.218;6.548;2023-05-31T01:17:53;11.60;99.90
51902;DHT22;37929;53.218;6.548;2023-05-31T01:20:37;11.60;99.90
51902;DHT22;37929;53.218;6.548;2023-05-31T01:28:56;10.80;99.90
51902;DHT22;37929;53.218;6.548;2023-05-31T01:31:23;11.50;99.90
51902;DHT22;37929;53.218;6.548;2023-05-31T01:33:49;11.50;99.90
51902;DHT22;37929;53.218;6.548;2023-05-31T01:36:16;11.60;99.90
51902;DHT22;37929;53.218;6.548;2023-05-31T01:38:41;11.50;99.90
51902;DHT22;37929;53.218;6.548;2023-05-31T01:41:08;11.60;99.90
51902;DHT22;37929;53.218;6.548;2023-05-31T01:43:41;11.50;99.90
51902;DHT22;37929;53.218;6.548;2023-05-31T01:46:08;11.60;99.90
51902;DHT22;37929;53.218;6.548;2023-05-31T01:48:34;11.50;99.90
51902;DHT22;37929;53.218;6.548;2023-05-31T01:51:01;11.50;99.90
51902;DHT22;37929;53.218;6.548;2023-05-31T01:53:27;11.40;99.90
51902;DHT22;37929;53.218;6.548;2023-05-31T01:55:58;11.50;99.90
51902;DHT22;37929;53.218;6.548;2023-05-31T01:58:24;12.20;99.90
51902;DHT22;37929;53.218;6.548;2023-05-31T02:00:53;11.50;99.90
51902;DHT22;37929;53.218;6.548;2023-05-31T02:03:19;11.50;99.90
51902;DHT22;37929;53.218;6.548;2023-05-31T02:05:55;11.50;99.90
51902;DHT22;37929;53.218;6.548;2023-05-31T02:08:22;11.50;99.90
51902;DHT22;37929;53.218;6.548;2023-05-31T02:10:48;11.50;99.90
51902;DHT22;37929;53.218;6.548;2023-05-31T02:13:16;11.50;99.90
51902;DHT22;37929;53.218;6.548;2023-05-31T02:15:42;11.50;99.90
51902;DHT22;37929;53.218;6.548;2023-05-31T02:18:09;11.50;99.90
51902;DHT22;37929;53.218;6.548;2023-05-31T02:20:34;11.10;99.90
51902;DHT22;37929;53.218;6.548;2023-05-31T02:23:00;11.50;99.90
51902;DHT22;37929;53.218;6.548;2023-05-31T02:25:26;11.50;99.90
51902;DHT22;37929;53.218;6.548;2023-05-31T02:27:52;11.40;99.90
51902;DHT22;37929;53.218;6.548;2023-05-31T02:30:19;11.50;99.90
51902;DHT22;37929;53.218;6.548;2023-05-31T02:32:44;11.40;99.90
51902;DHT22;37929;53.218;6.548;2023-05-31T02:35:13;11.40;99.90
51902;DHT22;37929;53.218;6.548;2023-05-31T02:37:39;11.30;99.90
51902;DHT22;37929;53.218;6.548;2023-05-31T02:40:06;11.30;99.90
51902;DHT22;37929;53.218;6.548;2023-05-31T02:42:37;11.30;99.90
51902;DHT22;37929;53.218;6.548;2023-05-31T02:45:03;11.30;99.90
51902;DHT22;37929;53.218;6.548;2023-05-31T02:47:29;11.30;99.90
51902;DHT22;37929;53.218;6.548;2023-05-31T02:49:55;11.40;99.90
51902;DHT22;37929;53.218;6.548;2023-05-31T02:52:21;11.40;99.90
51902;DHT22;37929;53.218;6.548;2023-05-31T02:54:49;11.40;99.90
51902;DHT22;37929;53.218;6.548;2023-05-31T02:57:15;11.40;99.90
51902;DHT22;37929;53.218;6.548;2023-05-31T02:59:55;11.50;99.90
51902;DHT22;37929;53.218;6.548;2023-05-31T03:02:21;11.30;99.90
51902;DHT22;37929;53.218;6.548;2023-05-31T03:04:47;11.30;99.90
51902;DHT22;37929;53.218;6.548;2023-05-31T03:07:14;11.70;99.90
51902;DHT22;37929;53.218;6.548;2023-05-31T03:09:42;11.30;99.90
51902;DHT22;37929;53.218;6.548;2023-05-31T03:12:09;11.30;99.90
51902;DHT22;37929;53.218;6.548;2023-05-31T03:14:35;11.30;99.90
51902;DHT22;37929;53.218;6.548;2023-05-31T03:17:01;11.30;99.90
51902;DHT22;37929;53.218;6.548;2023-05-31T03:19:28;11.20;99.90
51902;DHT22;37929;53.218;6.548;2023-05-31T03:21:54;11.20;99.90
51902;DHT22;37929;53.218;6.548;2023-05-31T03:24:20;11.20;99.90
51902;DHT22;37929;53.218;6.548;2023-05-31T03:26:46;11.20;99.90
51902;DHT22;37929;53.218;6.548;2023-05-31T03:29:14;11.40;99.90
51902;DHT22;37929;53.218;6.548;2023-05-31T03:31:40;11.20;99.90
51902;DHT22;37929;53.218;6.548;2023-05-31T03:34:06;11.10;99.90
51902;DHT22;37929;53.218;6.548;2023-05-31T03:36:32;11.10;99.90
51902;DHT22;37929;53.218;6.548;2023-05-31T03:38:58;11.20;99.90
51902;DHT22;37929;53.218;6.548;2023-05-31T03:41:23;11.10;99.90
51902;DHT22;37929;53.218;6.548;2023-05-31T03:43:49;11.10;99.90
51902;DHT22;37929;53.218;6.548;2023-05-31T03:46:16;11.20;99.90
51902;DHT22;37929;53.218;6.548;2023-05-31T03:48:45;11.20;99.90
51902;DHT22;37929;53.218;6.548;2023-05-31T03:51:10;11.20;99.90
51902;DHT22;37929;53.218;6.548;2023-05-31T03:53:36;11.00;99.90
51902;DHT22;37929;53.218;6.548;2023-05-31T03:56:02;11.10;99.90
51902;DHT22;37929;53.218;6.548;2023-05-31T03:58:27;11.10;99.90
51902;DHT22;37929;53.218;6.548;2023-05-31T04:00:53;11.10;99.90
51902;DHT22;37929;53.218;6.548;2023-05-31T04:03:20;11.10;99.90
51902;DHT22;37929;53.218;6.548;2023-05-31T04:05:46;11.10;99.90
51902;DHT22;37929;53.218;6.548;2023-05-31T04:08:12;11.10;99.90
51902;DHT22;37929;53.218;6.548;2023-05-31T04:10:38;11.10;99.90
51902;DHT22;37929;53.218;6.548;2023-05-31T04:13:03;11.10;99.90
51902;DHT22;37929;53.218;6.548;2023-05-31T04:15:29;11.20;99.90
51902;DHT22;37929;53.218;6.548;2023-05-31T04:17:55;11.20;99.90
51902;DHT22;37929;53.218;6.548;2023-05-31T04:20:23;11.20;99.90
51902;DHT22;37929;53.218;6.548;2023-05-31T04:22:50;11.50;99.90
51902;DHT22;37929;53.218;6.548;2023-05-31T04:25:16;11.20;99.90
51902;DHT22;37929;53.218;6.548;2023-05-31T04:27:43;11.20;99.90
51902;DHT22;37929;53.218;6.548;2023-05-31T04:30:09;11.20;99.90
51902;DHT22;37929;53.218;6.548;2023-05-31T04:32:35;11.20;99.90
51902;DHT22;37929;53.218;6.548;2023-05-31T04:35:01;11.20;99.90
51902;DHT22;37929;53.218;6.548;2023-05-31T04:37:32;11.20;99.90
51902;DHT22;37929;53.218;6.548;2023-05-31T04:39:59;11.30;99.90
51902;DHT22;37929;53.218;6.548;2023-05-31T04:42:26;11.20;99.90
51902;DHT22;37929;53.218;6.548;2023-05-31T04:44:58;11.20;99.90
51902;DHT22;37929;53.218;6.548;2023-05-31T04:47:27;11.20;99.90
51902;DHT22;37929;53.218;6.548;2023-05-31T04:49:57;12.00;99.90
51902;DHT22;37929;53.218;6.548;2023-05-31T04:52:24;11.30;99.90
51902;DHT22;37929;53.218;6.548;2023-05-31T04:54:53;11.30;99.90
51902;DHT22;37929;53.218;6.548;2023-05-31T04:57:19;11.30;99.90
51902;DHT22;37929;53.218;6.548;2023-05-31T04:59:46;11.30;99.90
51902;DHT22;37929;53.218;6.548;2023-05-31T05:02:12;11.30;99.90
51902;DHT22;37929;53.218;6.548;2023-05-31T05:04:38;11.60;99.90
51902;DHT22;37929;53.218;6.548;2023-05-31T05:07:03;11.50;99.90
51902;DHT22;37929;53.218;6.548;2023-05-31T05:09:30;11.40;99.90
51902;DHT22;37929;53.218;6.548;2023-05-31T05:11:56;11.40;99.90
51902;DHT22;37929;53.218;6.548;2023-05-31T05:14:22;11.40;99.90
51902;DHT22;37929;53.218;6.548;2023-05-31T05:16:48;11.50;99.90
51902;DHT22;37929;53.218;6.548;2023-05-31T05:19:14;11.50;99.90
51902;DHT22;37929;53.218;6.548;2023-05-31T05:21:40;11.50;99.90
51902;DHT22;37929;53.218;6.548;2023-05-31T05:24:05;11.50;99.90
51902;DHT22;37929;53.218;6.548;2023-05-31T05:26:33;11.70;99.90
51902;DHT22;37929;53.218;6.548;2023-05-31T05:29:01;11.60;99.90
51902;DHT22;37929;53.218;6.548;2023-05-31T05:31:27;11.50;99.90
51902;DHT22;37929;53.218;6.548;2023-05-31T05:33:53;11.60;99.90
51902;DHT22;37929;53.218;6.548;2023-05-31T05:36:22;11.70;99.90
51902;DHT22;37929;53.218;6.548;2023-05-31T05:38:48;11.70;99.90
51902;DHT22;37929;53.218;6.548;2023-05-31T05:41:14;11.70;99.90
51902;DHT22;37929;53.218;6.548;2023-05-31T05:43:43;11.70;99.90
51902;DHT22;37929;53.218;6.548;2023-05-31T05:46:08;11.80;99.90
51902;DHT22;37929;53.218;6.548;2023-05-31T05:48:34;11.80;99.90
51902;DHT22;37929;53.218;6.548;2023-05-31T05:51:00;11.90;99.90
51902;DHT22;37929;53.218;6.548;2023-05-31T05:53:26;11.90;99.90
51902;DHT22;37929;53.218;6.548;2023-05-31T05:55:55;11.90;99.90
51902;DHT22;37929;53.218;6.548;2023-05-31T05:58:20;12.00;99.90
51902;DHT22;37929;53.218;6.548;2023-05-31T06:00:46;12.00;99.90
51902;DHT22;37929;53.218;6.548;2023-05-31T06:03:16;12.00;99.90
51902;DHT22;37929;53.218;6.548;2023-05-31T06:05:42;12.10;99.90
51902;DHT22;37929;53.218;6.548;2023-05-31T06:08:12;12.20;99.90
51902;DHT22;37929;53.218;6.548;2023-05-31T06:10:41;12.20;99.90
51902;DHT22;37929;53.218;6.548;2023-05-31T06:13:07;12.20;99.90
51902;DHT22;37929;53.218;6.548;2023-05-31T06:15:33;12.30;99.90
51902;DHT22;37929;53.218;6.548;2023-05-31T06:17:59;12.40;99.90
51902;DHT22;37929;53.218;6.548;2023-05-31T06:20:25;12.40;99.90
51902;DHT22;37929;53.218;6.548;2023-05-31T06:22:52;12.50;99.90
51902;DHT22;37929;53.218;6.548;2023-05-31T06:25:18;12.50;99.90
51902;DHT22;37929;53.218;6.548;2023-05-31T06:27:45;12.60;99.90
51902;DHT22;37929;53.218;6.548;2023-05-31T06:30:14;12.60;99.90
51902;DHT22;37929;53.218;6.548;2023-05-31T06:32:40;12.70;99.90
51902;DHT22;37929;53.218;6.548;2023-05-31T06:35:06;12.70;99.90
51902;DHT22;37929;53.218;6.548;2023-05-31T06:37:36;12.80;99.90
51902;DHT22;37929;53.218;6.548;2023-05-31T06:40:03;12.80;99.90
51902;DHT22;37929;53.218;6.548;2023-05-31T06:42:30;12.90;99.90
51902;DHT22;37929;53.218;6.548;2023-05-31T06:45:02;12.90;99.90
51902;DHT22;37929;53.218;6.548;2023-05-31T06:47:28;13.00;99.90
51902;DHT22;37929;53.218;6.548;2023-05-31T06:49:54;13.10;99.90
51902;DHT22;37929;53.218;6.548;2023-05-31T06:52:19;13.10;99.90
51902;DHT22;37929;53.218;6.548;2023-05-31T06:54:45;13.20;99.90
51902;DHT22;37929;53.218;6.548;2023-05-31T06:57:11;13.20;99.90
51902;DHT22;37929;53.218;6.548;2023-05-31T06:59:37;13.30;99.90
51902;DHT22;37929;53.218;6.548;2023-05-31T07:02:03;13.50;99.90
51902;DHT22;37929;53.218;6.548;2023-05-31T07:04:28;13.40;99.90
51902;DHT22;37929;53.218;6.548;2023-05-31T07:06:54;13.50;99.90
51902;DHT22;37929;53.218;6.548;2023-05-31T07:09:21;13.50;99.90
51902;DHT22;37929;53.218;6.548;2023-05-31T07:11:47;13.60;99.90
51902;DHT22;37929;53.218;6.548;2023-05-31T07:14:12;13.60;99.90
51902;DHT22;37929;53.218;6.548;2023-05-31T07:19:31;13.70;99.90
51902;DHT22;37929;53.218;6.548;2023-05-31T07:21:56;13.80;99.90
51902;DHT22;37929;53.218;6.548;2023-05-31T07:24:22;13.80;99.90
51902;DHT22;37929;53.218;6.548;2023-05-31T07:26:48;13.90;99.90
51902;DHT22;37929;53.218;6.548;2023-05-31T07:29:16;14.00;99.90
51902;DHT22;37929;53.218;6.548;2023-05-31T07:31:45;14.00;99.90
51902;DHT22;37929;53.218;6.548;2023-05-31T07:34:11;14.10;99.90
51902;DHT22;37929;53.218;6.548;2023-05-31T07:36:37;14.10;99.90
51902;DHT22;37929;53.218;6.548;2023-05-31T07:39:06;14.20;99.90
51902;DHT22;37929;53.218;6.548;2023-05-31T07:41:38;14.20;99.90
51902;DHT22;37929;53.218;6.548;2023-05-31T07:44:04;14.30;99.90
51902;DHT22;37929;53.218;6.548;2023-05-31T07:46:31;14.40;99.90
51902;DHT22;37929;53.218;6.548;2023-05-31T07:48:59;14.50;99.90
51902;DHT22;37929;53.218;6.548;2023-05-31T07:51:31;14.50;99.90
51902;DHT22;37929;53.218;6.548;2023-05-31T07:54:02;13.80;99.90
51902;DHT22;37929;53.218;6.548;2023-05-31T07:56:31;14.80;99.90
51902;DHT22;37929;53.218;6.548;2023-05-31T07:58:57;14.80;99.90
51902;DHT22;37929;53.218;6.548;2023-05-31T08:01:30;14.80;99.90
51902;DHT22;37929;53.218;6.548;2023-05-31T08:04:20;14.90;99.90
51902;DHT22;37929;53.218;6.548;2023-05-31T08:06:46;14.80;99.90
51902;DHT22;37929;53.218;6.548;2023-05-31T08:09:14;15.50;99.90
51902;DHT22;37929;53.218;6.548;2023-05-31T08:11:40;15.20;99.90
51902;DHT22;37929;53.218;6.548;2023-05-31T08:14:06;15.20;99.90
51902;DHT22;37929;53.218;6.548;2023-05-31T08:16:33;15.30;99.90
51902;DHT22;37929;53.218;6.548;2023-05-31T08:19:02;15.40;99.90
51902;DHT22;37929;53.218;6.548;2023-05-31T08:21:27;15.50;99.90
51902;DHT22;37929;53.218;6.548;2023-05-31T08:23:53;15.70;99.90
51902;DHT22;37929;53.218;6.548;2023-05-31T08:26:21;15.70;99.90
51902;DHT22;37929;53.218;6.548;2023-05-31T08:28:48;16.00;99.90
51902;DHT22;37929;53.218;6.548;2023-05-31T08:31:13;15.90;99.90
51902;DHT22;37929;53.218;6.548;2023-05-31T08:33:55;16.40;99.90
51902;DHT22;37929;53.218;6.548;2023-05-31T08:36:21;16.30;99.90
51902;DHT22;37929;53.218;6.548;2023-05-31T08:38:47;16.20;99.90
51902;DHT22;37929;53.218;6.548;2023-05-31T08:41:17;16.30;99.90
51902;DHT22;37929;53.218;6.548;2023-05-31T08:43:44;16.30;99.90
51902;DHT22;37929;53.218;6.548;2023-05-31T08:46:12;16.30;99.90
51902;DHT22;37929;53.218;6.548;2023-05-31T08:51:24;16.50;99.90
51902;DHT22;37929;53.218;6.548;2023-05-31T08:53:51;16.50;99.90
51902;DHT22;37929;53.218;6.548;2023-05-31T08:56:18;16.60;99.90
51902;DHT22;37929;53.218;6.548;2023-05-31T08:58:50;16.60;99.90
51902;DHT22;37929;53.218;6.548;2023-05-31T09:01:17;16.70;99.90
51902;DHT22;37929;53.218;6.548;2023-05-31T09:03:44;16.70;99.90
51902;DHT22;37929;53.218;6.548;2023-05-31T09:06:11;16.80;99.90
51902;DHT22;37929;53.218;6.548;2023-05-31T09:08:37;16.80;99.90
51902;DHT22;37929;53.218;6.548;2023-05-31T09:11:03;16.80;99.90
51902;DHT22;37929;53.218;6.548;2023-05-31T09:13:31;16.80;99.90
51902;DHT22;37929;53.218;6.548;2023-05-31T09:16:01;16.80;99.90
51902;DHT22;37929;53.218;6.548;2023-05-31T09:18:36;16.80;99.90
51902;DHT22;37929;53.218;6.548;2023-05-31T09:21:09;16.80;99.90
51902;DHT22;37929;53.218;6.548;2023-05-31T09:23:35;16.80;99.90
51902;DHT22;37929;53.218;6.548;2023-05-31T09:26:04;16.80;99.90
51902;DHT22;37929;53.218;6.548;2023-05-31T09:28:31;16.70;99.90
51902;DHT22;37929;53.218;6.548;2023-05-31T09:31:04;16.70;99.90
51902;DHT22;37929;53.218;6.548;2023-05-31T09:33:38;16.60;99.90
51902;DHT22;37929;53.218;6.548;2023-05-31T09:36:07;16.50;99.90
51902;DHT22;37929;53.218;6.548;2023-05-31T09:38:35;16.10;99.90
51902;DHT22;37929;53.218;6.548;2023-05-31T09:41:14;16.50;99.90
51902;DHT22;37929;53.218;6.548;2023-05-31T09:43:42;16.40;99.90
51902;DHT22;37929;53.218;6.548;2023-05-31T09:46:15;16.40;99.90
51902;DHT22;37929;53.218;6.548;2023-05-31T09:49:00;16.40;99.90
51902;DHT22;37929;53.218;6.548;2023-05-31T09:51:39;16.40;99.90
51902;DHT22;37929;53.218;6.548;2023-05-31T09:54:14;16.40;99.90
51902;DHT22;37929;53.218;6.548;2023-05-31T09:56:52;16.30;99.90
51902;DHT22;37929;53.218;6.548;2023-05-31T09:59:22;16.30;99.90
51902;DHT22;37929;53.218;6.548;2023-05-31T10:02:09;16.30;99.90
51902;DHT22;37929;53.218;6.548;2023-05-31T10:04:35;16.30;99.90
51902;DHT22;37929;53.218;6.548;2023-05-31T10:07:02;16.30;99.90
51902;DHT22;37929;53.218;6.548;2023-05-31T10:09:31;16.30;99.90
51902;DHT22;37929;53.218;6.548;2023-05-31T10:12:00;16.30;99.90
51902;DHT22;37929;53.218;6.548;2023-05-31T10:14:29;16.40;99.90
51902;DHT22;37929;53.218;6.548;2023-05-31T10:17:02;16.40;99.90
51902;DHT22;37929;53.218;6.548;2023-05-31T10:19:52;16.40;99.90
51902;DHT22;37929;53.218;6.548;2023-05-31T10:22:20;16.40;99.90
51902;DHT22;37929;53.218;6.548;2023-05-31T10:27:39;16.50;99.90
51902;DHT22;37929;53.218;6.548;2023-05-31T10:30:17;16.50;99.90
51902;DHT22;37929;53.218;6.548;2023-05-31T10:32:58;16.70;99.90
51902;DHT22;37929;53.218;6.548;2023-05-31T10:35:26;16.60;99.90
51902;DHT22;37929;53.218;6.548;2023-05-31T10:37:52;16.60;99.90
51902;DHT22;37929;53.218;6.548;2023-05-31T10:43:41;16.70;99.90
51902;DHT22;37929;53.218;6.548;2023-05-31T10:46:10;16.70;99.90
51902;DHT22;37929;53.218;6.548;2023-05-31T10:48:56;17.40;99.90
51902;DHT22;37929;53.218;6.548;2023-05-31T10:51:41;16.80;99.90
51902;DHT22;37929;53.218;6.548;2023-05-31T10:54:18;16.90;99.90
51902;DHT22;37929;53.218;6.548;2023-05-31T10:56:52;16.90;99.90
51902;DHT22;37929;53.218;6.548;2023-05-31T10:59:19;16.90;99.90
51902;DHT22;37929;53.218;6.548;2023-05-31T11:01:47;17.00;99.90
51902;DHT22;37929;53.218;6.548;2023-05-31T11:04:24;17.00;99.90
51902;DHT22;37929;53.218;6.548;2023-05-31T11:09:56;17.10;99.90
51902;DHT22;37929;53.218;6.548;2023-05-31T11:12:34;17.20;99.90
51902;DHT22;37929;53.218;6.548;2023-05-31T11:15:02;17.20;99.90
51902;DHT22;37929;53.218;6.548;2023-05-31T11:17:29;17.30;99.90
51902;DHT22;37929;53.218;6.548;2023-05-31T11:20:04;17.30;99.90
51902;DHT22;37929;53.218;6.548;2023-05-31T11:22:31;17.40;99.90
51902;DHT22;37929;53.218;6.548;2023-05-31T11:24:57;17.50;99.90
51902;DHT22;37929;53.218;6.548;2023-05-31T11:27:42;17.60;99.90
51902;DHT22;37929;53.218;6.548;2023-05-31T11:30:14;17.60;99.90
51902;DHT22;37929;53.218;6.548;2023-05-31T11:35:14;17.90;99.90
51902;DHT22;37929;53.218;6.548;2023-05-31T11:37:43;17.50;99.90
51902;DHT22;37929;53.218;6.548;2023-05-31T11:40:11;18.10;99.90
51902;DHT22;37929;53.218;6.548;2023-05-31T11:42:44;18.10;99.90
51902;DHT22;37929;53.218;6.548;2023-05-31T11:45:15;18.30;99.90
51902;DHT22;37929;53.218;6.548;2023-05-31T11:50:26;18.50;99.90
51902;DHT22;37929;53.218;6.548;2023-05-31T11:52:56;18.50;99.90
51902;DHT22;37929;53.218;6.548;2023-05-31T11:55:32;18.60;99.90
51902;DHT22;37929;53.218;6.548;2023-05-31T11:58:01;18.60;99.90
51902;DHT22;37929;53.218;6.548;2023-05-31T12:00:27;18.70;99.90
51902;DHT22;37929;53.218;6.548;2023-05-31T12:03:07;18.80;99.90
51902;DHT22;37929;53.218;6.548;2023-05-31T12:05:57;18.80;99.90
51902;DHT22;37929;53.218;6.548;2023-05-31T12:08:25;18.90;99.90
51902;DHT22;37929;53.218;6.548;2023-05-31T12:10:51;19.00;99.90
51902;DHT22;37929;53.218;6.548;2023-05-31T12:13:18;19.10;99.90
51902;DHT22;37929;53.218;6.548;2023-05-31T12:15:51;19.10;99.90
51902;DHT22;37929;53.218;6.548;2023-05-31T12:18:19;19.20;99.90
51902;DHT22;37929;53.218;6.548;2023-05-31T12:20:45;19.20;99.90
51902;DHT22;37929;53.218;6.548;2023-05-31T12:23:13;19.30;99.90
51902;DHT22;37929;53.218;6.548;2023-05-31T12:25:49;19.40;99.90
51902;DHT22;37929;53.218;6.548;2023-05-31T12:28:17;19.40;99.90
51902;DHT22;37929;53.218;6.548;2023-05-31T12:30:47;19.50;99.90
51902;DHT22;37929;53.218;6.548;2023-05-31T12:33:16;19.50;99.90
51902;DHT22;37929;53.218;6.548;2023-05-31T12:35:46;19.70;99.90
51902;DHT22;37929;53.218;6.548;2023-05-31T12:38:12;19.70;99.90
51902;DHT22;37929;53.218;6.548;2023-05-31T12:40:44;19.80;99.90
51902;DHT22;37929;53.218;6.548;2023-05-31T12:43:11;19.80;99.90
51902;DHT22;37929;53.218;6.548;2023-05-31T12:45:40;19.80;99.90
51902;DHT22;37929;53.218;6.548;2023-05-31T12:48:07;19.80;99.90
51902;DHT22;37929;53.218;6.548;2023-05-31T12:50:34;19.90;99.90
51902;DHT22;37929;53.218;6.548;2023-05-31T12:53:00;19.80;99.90
51902;DHT22;37929;53.218;6.548;2023-05-31T12:55:30;19.90;99.90
51902;DHT22;37929;53.218;6.548;2023-05-31T12:58:11;19.90;99.90
51902;DHT22;37929;53.218;6.548;2023-05-31T13:00:44;19.80;99.90
51902;DHT22;37929;53.218;6.548;2023-05-31T13:03:12;19.90;99.90
51902;DHT22;37929;53.218;6.548;2023-05-31T13:05:39;19.90;99.90
51902;DHT22;37929;53.218;6.548;2023-05-31T13:08:08;19.90;99.90
51902;DHT22;37929;53.218;6.548;2023-05-31T13:10:33;19.90;99.90
51902;DHT22;37929;53.218;6.548;2023-05-31T13:13:01;19.90;99.90
51902;DHT22;37929;53.218;6.548;2023-05-31T13:15:32;19.90;99.90
51902;DHT22;37929;53.218;6.548;2023-05-31T13:17:57;20.40;99.90
51902;DHT22;37929;53.218;6.548;2023-05-31T13:20:23;19.90;99.90
51902;DHT22;37929;53.218;6.548;2023-05-31T13:22:49;19.80;99.90
51902;DHT22;37929;53.218;6.548;2023-05-31T13:25:15;19.80;99.90
51902;DHT22;37929;53.218;6.548;2023-05-31T13:27:46;19.70;99.90
51902;DHT22;37929;53.218;6.548;2023-05-31T13:30:15;19.60;99.90
51902;DHT22;37929;53.218;6.548;2023-05-31T13:32:40;19.60;99.90
51902;DHT22;37929;53.218;6.548;2023-05-31T13:35:09;19.50;99.90
51902;DHT22;37929;53.218;6.548;2023-05-31T13:37:35;19.50;99.90
51902;DHT22;37929;53.218;6.548;2023-05-31T13:40:01;19.40;99.90
51902;DHT22;37929;53.218;6.548;2023-05-31T13:42:28;19.30;99.90
51902;DHT22;37929;53.218;6.548;2023-05-31T13:44:54;19.30;99.90
51902;DHT22;37929;53.218;6.548;2023-05-31T13:47:25;19.30;99.90
51902;DHT22;37929;53.218;6.548;2023-05-31T13:49:54;19.20;99.90
51902;DHT22;37929;53.218;6.548;2023-05-31T13:52:22;19.20;99.90
51902;DHT22;37929;53.218;6.548;2023-05-31T13:54:52;19.00;99.90
51902;DHT22;37929;53.218;6.548;2023-05-31T13:57:18;19.00;99.90
51902;DHT22;37929;53.218;6.548;2023-05-31T13:59:43;19.20;99.90
51902;DHT22;37929;53.218;6.548;2023-05-31T14:02:09;18.90;99.90
51902;DHT22;37929;53.218;6.548;2023-05-31T14:04:38;18.90;99.90
51902;DHT22;37929;53.218;6.548;2023-05-31T14:07:07;18.90;99.90
51902;DHT22;37929;53.218;6.548;2023-05-31T14:09:33;18.80;99.90
51902;DHT22;37929;53.218;6.548;2023-05-31T14:12:02;18.80;99.90
51902;DHT22;37929;53.218;6.548;2023-05-31T14:14:28;18.80;99.90
51902;DHT22;37929;53.218;6.548;2023-05-31T14:16:54;18.80;99.90
51902;DHT22;37929;53.218;6.548;2023-05-31T14:19:21;18.80;99.90
51902;DHT22;37929;53.218;6.548;2023-05-31T14:21:46;18.80;99.90
51902;DHT22;37929;53.218;6.548;2023-05-31T14:24:13;18.80;99.90
51902;DHT22;37929;53.218;6.548;2023-05-31T14:26:41;18.70;99.90
51902;DHT22;37929;53.218;6.548;2023-05-31T14:29:07;18.70;99.90
51902;DHT22;37929;53.218;6.548;2023-05-31T14:31:33;18.70;99.90
51902;DHT22;37929;53.218;6.548;2023-05-31T14:33:59;18.60;99.90
51902;DHT22;37929;53.218;6.548;2023-05-31T14:36:28;19.00;99.90
51902;DHT22;37929;53.218;6.548;2023-05-31T14:38:54;18.60;99.90
51902;DHT22;37929;53.218;6.548;2023-05-31T14:41:22;18.50;99.90
51902;DHT22;37929;53.218;6.548;2023-05-31T14:43:48;18.50;99.90
51902;DHT22;37929;53.218;6.548;2023-05-31T14:46:14;18.50;99.90
51902;DHT22;37929;53.218;6.548;2023-05-31T14:48:40;18.50;99.90
51902;DHT22;37929;53.218;6.548;2023-05-31T14:51:09;18.50;99.90
51902;DHT22;37929;53.218;6.548;2023-05-31T14:53:35;18.40;99.90
51902;DHT22;37929;53.218;6.548;2023-05-31T14:56:01;18.40;99.90
51902;DHT22;37929;53.218;6.548;2023-05-31T14:58:28;18.30;99.90
51902;DHT22;37929;53.218;6.548;2023-05-31T15:00:57;18.20;99.90
51902;DHT22;37929;53.218;6.548;2023-05-31T15:03:23;18.20;99.90
51902;DHT22;37929;53.218;6.548;2023-05-31T15:05:48;18.10;99.90
51902;DHT22;37929;53.218;6.548;2023-05-31T15:08:14;18.10;99.90
51902;DHT22;37929;53.218;6.548;2023-05-31T15:10:40;17.90;99.90
51902;DHT22;37929;53.218;6.548;2023-05-31T15:13:09;17.80;99.90
51902;DHT22;37929;53.218;6.548;2023-05-31T15:15:35;17.80;99.90
51902;DHT22;37929;53.218;6.548;2023-05-31T15:18:03;17.80;99.90
51902;DHT22;37929;53.218;6.548;2023-05-31T15:20:30;17.70;99.90
51902;DHT22;37929;53.218;6.548;2023-05-31T15:22:59;17.60;99.90
51902;DHT22;37929;53.218;6.548;2023-05-31T15:25:25;17.60;99.90
51902;DHT22;37929;53.218;6.548;2023-05-31T15:27:53;17.50;99.90
51902;DHT22;37929;53.218;6.548;2023-05-31T15:30:22;17.60;99.90
51902;DHT22;37929;53.218;6.548;2023-05-31T15:32:48;17.60;99.90
51902;DHT22;37929;53.218;6.548;2023-05-31T15:35:14;17.50;99.90
51902;DHT22;37929;53.218;6.548;2023-05-31T15:37:40;17.50;99.90
51902;DHT22;37929;53.218;6.548;2023-05-31T15:40:06;17.50;99.90
51902;DHT22;37929;53.218;6.548;2023-05-31T15:42:32;17.40;99.90
51902;DHT22;37929;53.218;6.548;2023-05-31T15:45:00;17.30;99.90
51902;DHT22;37929;53.218;6.548;2023-05-31T15:47:25;17.20;99.90
51902;DHT22;37929;53.218;6.548;2023-05-31T15:49:51;17.20;99.90
51902;DHT22;37929;53.218;6.548;2023-05-31T15:52:18;17.20;99.90
51902;DHT22;37929;53.218;6.548;2023-05-31T15:54:44;17.20;99.90
51902;DHT22;37929;53.218;6.548;2023-05-31T15:57:10;17.20;99.90
51902;DHT22;37929;53.218;6.548;2023-05-31T15:59:36;17.10;99.90
51902;DHT22;37929;53.218;6.548;2023-05-31T16:02:02;17.10;99.90
51902;DHT22;37929;53.218;6.548;2023-05-31T16:04:30;17.00;99.90
51902;DHT22;37929;53.218;6.548;2023-05-31T16:06:59;17.00;99.90